Time;durP1;ratioP1;P1;durP2;ratioP2;P2;SDS_P1;SDS_P2;PMS_P1;PMS_P2;Temp;Humidity;BMP_temperature;BMP_pressure;BME280_temperature;BME280_humidity;BME280_pressure;Samples;Min_cycle;Max_cycle;Signal;HPM_P1;HPM_P2
2023/01/15 00:02:07;;;;;;;1.80;0.88;;;;;;;3.29;90.06;99569.13;4455126;32;34809;-69
2023/01/15 00:04:35;;;;;;;1.37;1.35;;;;;;;3.41;89.91;99561.69;4455071;32;35072;-77
2023/01/15 00:07:03;;;;;;;4.00;1.85;;;;;;;3.95;87.32;99562.78;4454993;32;34444;-77
2023/01/15 00:09:31;;;;;;;1.83;1.37;;;;;;;3.67;88.41;99566.50;4454956;32;33450;-77
2023/01/15 00:12:01;;;;;;;1.05;1.05;;;;;;;4.16;87.01;99560.63;4454962;32;34022;-77
2023/01/15 00:14:29;;;;;;;2.80;2.60;;;;;;;3.46;88.96;99554.94;4454943;32;35124;-77
2023/01/15 00:16:57;;;;;;;4.50;2.55;;;;;;;3.70;89.02;99551.13;4454796;32;34679;-70
2023/01/15 00:19:25;;;;;;;3.67;2.83;;;;;;;2.82;93.08;99552.66;4454938;32;33694;-77
2023/01/15 00:21:53;;;;;;;0.75;0.75;;;;;;;3.32;91.60;99558.87;4454984;32;33947;-77
2023/01/15 00:30:12;;;;;;;2.22;2.12;;;;;;;3.01;91.71;99548.78;4436879;32;33482;-73
2023/01/15 00:32:42;;;;;;;1.52;1.42;;;;;;;3.50;89.53;99546.44;4441113;32;33927;-77
2023/01/15 00:35:14;;;;;;;2.15;2.03;;;;;;;3.60;89.71;99540.62;4454814;32;35153;-74
2023/01/15 00:37:43;;;;;;;1.00;1.00;;;;;;;3.32;92.22;99543.44;4454846;32;34432;-77
2023/01/15 00:40:12;;;;;;;2.50;2.30;;;;;;;3.05;92.39;99536.84;4448426;32;34481;-69
2023/01/15 00:42:40;;;;;;;2.83;2.67;;;;;;;3.44;90.96;99525.69;4454881;32;33814;-77
2023/01/15 00:45:11;;;;;;;3.67;3.37;;;;;;;3.33;90.85;99535.75;4454693;32;34295;-69
2023/01/15 00:47:41;;;;;;;6.30;3.85;;;;;;;3.50;89.95;99538.69;4454858;32;35298;-77
2023/01/15 00:50:14;;;;;;;5.70;3.22;;;;;;;3.36;90.80;99534.97;4454711;32;33586;-77
2023/01/15 00:52:43;;;;;;;3.72;3.42;;;;;;;3.57;89.63;99540.56;4440961;32;33899;-78
2023/01/15 00:55:10;;;;;;;6.50;4.50;;;;;;;3.39;90.84;99538.47;4454763;32;35970;-71
2023/01/15 00:57:39;;;;;;;1.08;1.00;;;;;;;4.03;87.22;99532.03;4454937;32;34502;-77
2023/01/15 01:00:08;;;;;;;1.62;1.50;;;;;;;3.86;88.51;99526.53;4454687;32;34059;-74
2023/01/15 01:02:36;;;;;;;2.70;2.53;;;;;;;3.73;87.79;99528.87;4454524;32;34022;-77
2023/01/15 01:05:04;;;;;;;1.95;1.85;;;;;;;3.23;90.03;99532.12;4454523;32;35149;-77
2023/01/15 01:07:33;;;;;;;1.25;1.25;;;;;;;3.57;89.67;99530.28;4453349;32;34624;-77
2023/01/15 01:10:01;;;;;;;0.85;0.85;;;;;;;3.74;87.92;99525.47;4454633;32;33497;-77
2023/01/15 01:12:29;;;;;;;6.87;5.87;;;;;;;3.17;89.04;99521.69;4454617;32;34452;-72
2023/01/15 01:14:57;;;;;;;0.85;0.85;;;;;;;3.33;89.57;99515.16;4454457;32;34934;-74
2023/01/15 01:17:25;;;;;;;0.90;0.90;;;;;;;3.37;88.19;99531.53;4454482;32;35199;-77
2023/01/15 01:19:53;;;;;;;2.40;1.75;;;;;;;3.51;86.97;99530.16;4454486;32;34180;-77
2023/01/15 01:22:22;;;;;;;0.60;0.60;;;;;;;3.30;88.93;99524.53;4454503;32;34011;-77
2023/01/15 01:24:50;;;;;;;4.32;3.37;;;;;;;3.33;88.54;99519.47;4454256;32;36008;-77
2023/01/15 01:27:18;;;;;;;1.42;1.33;;;;;;;3.71;87.25;99514.25;4454362;32;34593;-76
2023/01/15 01:29:46;;;;;;;1.08;1.08;;;;;;;3.17;88.69;99513.13;4454261;32;33686;-69
2023/01/15 01:32:14;;;;;;;0.70;0.70;;;;;;;3.13;88.54;99514.75;4454598;32;34563;-77
2023/01/15 01:34:42;;;;;;;1.00;1.00;;;;;;;3.33;86.84;99514.31;4454279;32;35409;-77
2023/01/15 01:37:10;;;;;;;0.60;0.60;;;;;;;3.14;88.36;99516.50;4454194;32;34483;-69
2023/01/15 01:39:39;;;;;;;0.93;0.93;;;;;;;2.46;90.92;99511.50;4454250;32;34162;-76
2023/01/15 01:42:15;;;;;;;3.40;3.08;;;;;;;2.69;89.97;99509.47;4454307;32;33858;-76
2023/01/15 01:44:44;;;;;;;1.02;0.93;;;;;;;2.96;89.40;99503.22;4454447;32;36010;-76
2023/01/15 01:47:21;;;;;;;2.08;1.30;;;;;;;2.82;88.79;99506.37;4454040;32;35330;-75
2023/01/15 01:49:56;;;;;;;0.80;0.80;;;;;;;3.06;87.68;99500.03;4440694;32;33337;-69
2023/01/15 01:52:29;;;;;;;0.68;0.68;;;;;;;2.90;87.86;99496.25;4440429;32;34664;-77
2023/01/15 01:54:57;;;;;;;1.00;0.98;;;;;;;3.49;85.55;99480.31;4440289;32;35068;-77
2023/01/15 01:57:25;;;;;;;0.70;0.70;;;;;;;2.87;86.97;99487.59;4440238;32;35162;-77
2023/01/15 01:59:54;;;;;;;0.80;0.80;;;;;;;3.04;88.19;99473.41;4440163;32;33570;-77
2023/01/15 02:02:23;;;;;;;1.77;1.67;;;;;;;2.54;90.92;99467.97;4439921;32;34831;-70
2023/01/15 02:04:51;;;;;;;1.00;1.00;;;;;;;2.45;89.99;99461.78;4453822;32;34939;-77
2023/01/15 02:07:19;;;;;;;3.20;2.12;;;;;;;2.36;92.67;99453.84;4453815;32;35222;-69
2023/01/15 02:09:48;;;;;;;1.58;1.48;;;;;;;2.20;91.57;99450.03;4454048;32;34219;-72
2023/01/15 02:12:25;;;;;;;1.42;1.33;;;;;;;2.31;91.18;99440.00;4453731;32;34710;-76
2023/01/15 02:15:02;;;;;;;0.98;0.98;;;;;;;1.96;94.00;99437.47;4440094;32;35005;-76
2023/01/15 02:17:52;;;;;;;1.55;1.33;;;;;;;2.38;91.81;99439.34;4439995;32;34678;-77
2023/01/15 02:20:28;;;;;;;1.25;1.25;;;;;;;2.65;90.12;99451.09;4455799;32;34488;-76
2023/01/15 02:23:11;;;;;;;2.05;1.95;;;;;;;2.23;91.17;99441.56;4455784;32;33998;-76
2023/01/15 02:26:17;;;;;;;2.78;2.55;;;;;;;1.90;93.00;99434.72;4456019;32;35057;-77
2023/01/15 02:28:47;;;;;;;0.80;0.80;;;;;;;1.94;93.35;99433.09;4455693;32;34596;-77
2023/01/15 02:31:22;;;;;;;0.75;0.75;;;;;;;2.11;92.29;99433.53;4436365;32;33598;-76
2023/01/15 02:34:12;;;;;;;1.45;1.35;;;;;;;2.06;94.02;99436.00;4455914;32;33937;-76
2023/01/15 02:36:46;;;;;;;0.93;0.93;;;;;;;2.00;94.14;99426.44;4442074;32;35120;-76
2023/01/15 02:39:18;;;;;;;0.85;0.85;;;;;;;2.53;90.87;99441.41;4442355;32;34560;-76
2023/01/15 02:41:50;;;;;;;1.00;1.00;;;;;;;2.70;90.19;99433.19;4442054;32;32756;-77
2023/01/15 02:44:21;;;;;;;1.92;1.83;;;;;;;2.16;91.22;99426.81;4442281;32;34208;-75
2023/01/15 02:46:52;;;;;;;1.23;1.20;;;;;;;2.38;91.81;99426.50;4455834;32;35900;-75
2023/01/15 02:49:22;;;;;;;1.67;1.58;;;;;;;2.47;91.63;99416.44;4442115;32;33673;-75
2023/01/15 02:52:03;;;;;;;0.80;0.80;;;;;;;2.32;91.62;99416.06;4455454;32;33458;-76
2023/01/15 02:54:44;;;;;;;1.05;1.05;;;;;;;2.28;92.18;99407.44;4441595;32;34027;-74
2023/01/15 02:57:14;;;;;;;1.70;1.60;;;;;;;2.43;91.49;99413.75;4441934;32;35828;-75
2023/01/15 02:59:47;;;;;;;0.70;0.70;;;;;;;2.46;91.59;99401.84;4455767;32;35094;-76
2023/01/15 03:02:20;;;;;;;1.77;1.67;;;;;;;2.49;91.90;99407.88;4441648;32;33694;-76
2023/01/15 03:05:07;;;;;;;0.80;0.80;;;;;;;2.51;90.70;99403.66;4455521;32;33862;-73
2023/01/15 03:07:46;;;;;;;5.30;1.60;;;;;;;2.37;92.55;99393.91;4441817;32;35903;-76
2023/01/15 03:10:15;;;;;;;0.70;0.70;;;;;;;2.37;93.11;99387.94;4455604;32;34368;-76
2023/01/15 03:13:01;;;;;;;3.58;3.37;;;;;;;2.27;92.35;99391.97;4441515;32;33728;-77
2023/01/15 03:19:19;;;;;;;6.53;3.47;;;;;;;2.23;93.15;99395.31;4444028;32;34936;-76
2023/01/15 03:22:10;;;;;;;1.20;1.17;;;;;;;2.56;92.45;99391.75;4455239;32;35133;-76
2023/01/15 03:24:51;;;;;;;1.50;1.17;;;;;;;2.43;92.17;99383.75;4455683;32;33516;-76
2023/01/15 03:27:20;;;;;;;0.95;0.95;;;;;;;2.28;91.88;99393.72;4441798;32;33885;-68
2023/01/15 03:29:57;;;;;;;0.70;0.70;;;;;;;2.29;91.64;99377.44;4440366;32;35194;-72
2023/01/15 03:32:26;;;;;;;0.75;0.75;;;;;;;2.19;92.56;99378.97;4455180;32;34572;-76
2023/01/15 03:34:55;;;;;;;0.60;0.60;;;;;;;2.31;91.81;99380.91;4441720;32;34337;-76
2023/01/15 03:37:26;;;;;;;4.53;4.22;;;;;;;2.39;91.67;99384.53;4455513;32;33917;-76
2023/01/15 03:39:56;;;;;;;1.45;1.33;;;;;;;2.16;92.23;99383.16;4455265;32;34980;-75
2023/01/15 03:42:48;;;;;;;0.60;0.60;;;;;;;2.25;94.27;99365.38;4455500;32;34516;-76
2023/01/15 03:45:30;;;;;;;1.00;1.00;;;;;;;2.14;93.17;99375.41;4455236;32;33433;-74
2023/01/15 03:48:08;;;;;;;0.95;0.95;;;;;;;1.88;95.65;99369.63;4441642;32;33906;-76
2023/01/15 03:50:36;;;;;;;1.35;1.25;;;;;;;2.34;93.52;99368.16;4441467;32;35030;-76
2023/01/15 03:53:07;;;;;;;1.73;1.62;;;;;;;2.24;92.30;99382.50;4455108;32;34521;-76
2023/01/15 03:55:53;;;;;;;2.22;2.12;;;;;;;2.53;92.04;99366.88;4455491;32;33491;-76
2023/01/15 03:58:34;;;;;;;0.80;0.80;;;;;;;2.22;92.53;99366.19;4455190;32;33921;-76
2023/01/15 04:01:09;;;;;;;0.70;0.70;;;;;;;2.28;92.10;99357.75;4441834;32;35161;-76
2023/01/15 04:03:38;;;;;;;1.52;1.42;;;;;;;2.26;93.75;99367.13;4441442;32;35139;-71
2023/01/15 04:06:08;;;;;;;2.95;2.17;;;;;;;2.52;92.31;99364.25;4455399;32;33530;-76
2023/01/15 04:08:38;;;;;;;0.70;0.70;;;;;;;2.56;91.32;99358.34;4441238;32;34094;-76
2023/01/15 04:11:07;;;;;;;5.07;1.30;;;;;;;2.73;90.99;99377.56;4455314;32;35090;-76
2023/01/15 04:13:37;;;;;;;1.33;1.27;;;;;;;2.58;90.94;99369.53;4455199;32;34616;-76
2023/01/15 04:16:05;;;;;;;0.95;0.95;;;;;;;2.39;92.90;99356.28;4455422;32;33516;-76
2023/01/15 04:18:35;;;;;;;1.05;1.05;;;;;;;2.49;92.57;99367.66;4455062;32;34111;-76
2023/01/15 04:21:03;;;;;;;1.25;1.25;;;;;;;2.67;90.86;99366.31;4454958;32;35038;-68
2023/01/15 04:23:32;;;;;;;0.60;0.60;;;;;;;2.79;91.49;99352.00;4455346;32;34582;-74
2023/01/15 04:26:01;;;;;;;1.25;1.25;;;;;;;2.77;91.44;99363.06;4455035;32;33115;-68
2023/01/15 04:28:29;;;;;;;0.88;0.88;;;;;;;2.59;92.21;99350.69;4454930;32;33795;-76
2023/01/15 04:30:58;;;;;;;1.77;1.67;;;;;;;2.15;93.40;99368.56;4454527;32;35778;-72
2023/01/15 04:33:26;;;;;;;1.20;1.20;;;;;;;2.28;95.32;99350.91;4454906;32;35188;-76
2023/01/15 04:35:59;;;;;;;0.77;0.77;;;;;;;2.14;94.83;99343.72;4454857;32;33441;-76
2023/01/15 04:38:27;;;;;;;1.30;1.30;;;;;;;1.96;96.20;99347.59;4454932;32;34173;-75
2023/01/15 04:46:41;;;;;;;10.10;9.20;;;;;;;2.59;92.86;99350.69;4454871;32;33555;-74
2023/01/15 04:49:12;;;;;;;2.22;2.12;;;;;;;2.17;95.88;99343.78;4454807;32;33798;-75
2023/01/15 04:51:41;;;;;;;2.25;1.50;;;;;;;2.28;94.07;99348.31;4441094;32;35895;-76
2023/01/15 04:54:10;;;;;;;1.08;1.08;;;;;;;2.31;94.37;99338.94;4454642;32;34469;-75
2023/01/15 04:56:46;;;;;;;0.70;0.70;;;;;;;2.41;94.38;99338.31;4454733;32;34424;-76
2023/01/15 04:59:15;;;;;;;1.15;1.15;;;;;;;2.46;93.15;99337.59;4454642;32;33909;-76
2023/01/15 05:01:44;;;;;;;0.60;0.60;;;;;;;2.39;94.33;99328.00;4454594;32;35801;-75
2023/01/15 05:04:31;;;;;;;1.48;1.40;;;;;;;2.54;93.76;99324.03;4454592;32;34358;-76
2023/01/15 05:07:01;;;;;;;0.88;0.88;;;;;;;2.42;92.98;99340.06;4454673;32;34312;-76
2023/01/15 05:09:30;;;;;;;0.80;0.80;;;;;;;2.57;93.18;99334.38;4440856;32;33137;-76
2023/01/15 05:11:58;;;;;;;0.65;0.65;;;;;;;2.33;95.35;99325.31;4454645;32;36178;-76
2023/01/15 05:14:26;;;;;;;1.65;1.55;;;;;;;2.49;93.78;99320.50;4454523;32;35303;-73
2023/01/15 05:16:54;;;;;;;0.68;0.68;;;;;;;2.51;93.64;99321.41;4454533;32;33498;-75
2023/01/15 05:19:22;;;;;;;0.70;0.70;;;;;;;2.94;91.30;99323.13;4454503;32;33832;-68
2023/01/15 05:21:52;;;;;;;0.70;0.70;;;;;;;2.38;93.46;99318.59;4454370;32;35178;-69
2023/01/15 05:24:20;;;;;;;1.55;1.55;;;;;;;2.32;95.44;99318.44;4454418;32;34431;-76
2023/01/15 05:26:48;;;;;;;1.40;1.33;;;;;;;2.56;94.12;99306.94;4454700;32;33494;-76
2023/01/15 05:29:16;;;;;;;2.08;1.08;;;;;;;2.46;93.02;99311.03;4454306;32;34627;-77
2023/01/15 05:31:45;;;;;;;0.80;0.80;;;;;;;2.42;94.20;99307.53;4445421;32;35057;-66
2023/01/15 05:34:13;;;;;;;0.90;0.90;;;;;;;2.55;94.14;99298.38;4438625;32;34606;-66
2023/01/15 05:36:41;;;;;;;0.70;0.70;;;;;;;2.34;94.78;99288.50;4438594;32;34355;-67
2023/01/15 05:39:10;;;;;;;0.90;0.90;;;;;;;2.50;94.13;99288.81;4438320;32;33749;-67
2023/01/15 05:41:47;;;;;;;0.70;0.70;;;;;;;2.04;96.34;99289.56;4438549;32;35978;-65
2023/01/15 05:44:32;;;;;;;5.15;4.80;;;;;;;2.42;95.26;99289.53;4415991;32;34664;-67
2023/01/15 05:47:06;;;;;;;1.65;1.55;;;;;;;2.06;97.03;99284.44;4438255;32;33706;-76
2023/01/15 05:49:35;;;;;;;0.70;0.70;;;;;;;2.16;97.21;99280.41;4432114;32;34686;-67
2023/01/15 05:52:03;;;;;;;0.70;0.70;;;;;;;2.34;96.03;99273.09;4424544;32;35178;-66
2023/01/15 05:54:32;;;;;;;0.80;0.80;;;;;;;2.52;94.77;99272.59;4439867;32;35210;-67
2023/01/15 05:57:01;;;;;;;4.85;4.45;;;;;;;2.53;94.75;99271.75;4439708;32;33563;-77
2023/01/15 05:59:30;;;;;;;1.73;1.67;;;;;;;2.41;95.49;99267.22;4440117;32;33935;-71
2023/01/15 06:01:59;;;;;;;0.70;0.70;;;;;;;2.32;96.24;99261.91;4426393;32;34884;-77
2023/01/15 06:04:27;;;;;;;0.95;0.95;;;;;;;2.22;97.84;99266.00;4440280;32;34473;-75
2023/01/15 06:06:56;;;;;;;0.90;0.90;;;;;;;2.30;98.80;99267.88;4439965;32;33382;-76
2023/01/15 06:09:26;;;;;;;1.15;1.15;;;;;;;2.22;99.01;99260.84;4440259;32;33678;-77
2023/01/15 06:11:55;;;;;;;1.05;1.05;;;;;;;2.27;98.65;99251.53;4440019;32;35044;-77
2023/01/15 06:14:23;;;;;;;0.60;0.60;;;;;;;1.93;99.11;99254.22;4440180;32;34882;-77
2023/01/15 06:16:51;;;;;;;0.70;0.70;;;;;;;2.56;98.76;99260.66;4439832;32;33446;-76
2023/01/15 06:19:20;;;;;;;0.98;0.98;;;;;;;2.29;99.45;99256.69;4440101;32;34018;-76
2023/01/15 06:21:48;;;;;;;4.22;2.08;;;;;;;2.38;100.00;99262.06;4439789;32;35987;-70
2023/01/15 06:24:16;;;;;;;1.60;1.58;;;;;;;2.49;98.88;99266.53;4440017;32;35373;-72
2023/01/15 06:26:45;;;;;;;1.08;1.08;;;;;;;2.53;98.84;99265.75;4439744;32;34410;-76
2023/01/15 06:29:16;;;;;;;0.88;0.88;;;;;;;2.23;100.00;99262.56;4439829;32;33964;-67
2023/01/15 06:31:44;;;;;;;0.75;0.75;;;;;;;2.61;98.57;99266.75;4439898;32;35146;-72
2023/01/15 06:34:12;;;;;;;1.27;1.27;;;;;;;2.44;98.73;99264.72;4439893;32;34344;-75
2023/01/15 06:36:40;;;;;;;0.70;0.70;;;;;;;2.49;99.14;99269.09;4439811;32;33628;-69
2023/01/15 06:39:08;;;;;;;0.60;0.60;;;;;;;2.56;98.95;99265.81;4440237;32;34731;-69
2023/01/15 06:47:21;;;;;;;;;;;;;;;2.62;97.44;99260.81;4389446;32;33426;-75
2023/01/15 06:49:53;;;;;;;0.60;0.60;;;;;;;2.68;99.77;99260.06;4438036;32;34084;-74
2023/01/15 06:52:26;;;;;;;1.30;1.20;;;;;;;2.96;99.42;99258.88;4435259;32;35114;-69
2023/01/15 06:54:54;;;;;;;0.80;0.80;;;;;;;2.98;98.43;99263.22;4439912;32;34396;-79
2023/01/15 06:57:23;;;;;;;0.70;0.70;;;;;;;2.64;99.69;99253.97;4439496;32;33583;-78
2023/01/15 06:59:51;;;;;;;1.02;1.02;;;;;;;2.96;98.29;99252.00;4439975;32;34790;-78
2023/01/15 07:02:20;;;;;;;0.82;0.82;;;;;;;2.53;100.00;99245.22;4440028;32;35927;-78
2023/01/15 07:04:49;;;;;;;1.65;1.55;;;;;;;2.31;100.00;99249.03;4438972;32;34488;-78
2023/01/15 07:07:19;;;;;;;1.20;1.20;;;;;;;2.75;100.00;99241.34;4439911;32;33407;-76
2023/01/15 07:09:47;;;;;;;0.70;0.70;;;;;;;2.76;100.00;99243.94;4439812;32;33880;-78
2023/01/15 07:12:16;;;;;;;0.88;0.88;;;;;;;2.43;100.00;99246.72;4439924;32;36036;-77
2023/01/15 07:14:44;;;;;;;0.60;0.60;;;;;;;2.82;100.00;99248.31;4439864;32;34557;-76
2023/01/15 07:17:12;;;;;;;3.45;3.15;;;;;;;2.91;100.00;99245.06;4439760;32;33456;-77
2023/01/15 07:19:41;;;;;;;4.20;1.27;;;;;;;3.21;100.00;99255.91;4439946;32;34032;-74
2023/01/15 07:22:10;;;;;;;1.15;1.05;;;;;;;2.88;100.00;99263.00;4439706;32;35122;-79
2023/01/15 07:24:38;;;;;;;2.62;2.40;;;;;;;2.63;100.00;99252.28;4439618;32;34491;-80
2023/01/15 07:27:06;;;;;;;1.98;1.83;;;;;;;3.10;100.00;99247.13;4439849;32;33655;-69
2023/01/15 07:29:34;;;;;;;0.90;0.90;;;;;;;3.10;100.00;99244.53;4439713;32;34611;-84
2023/01/15 07:32:03;;;;;;;5.37;1.25;;;;;;;2.77;100.00;99250.81;4439926;32;34927;-73
2023/01/15 07:34:31;;;;;;;2.53;2.42;;;;;;;2.82;100.00;99241.50;4439818;32;34686;-80
2023/01/15 07:36:59;;;;;;;0.68;0.68;;;;;;;3.26;100.00;99245.69;4439795;32;33547;-77
2023/01/15 07:39:27;;;;;;;0.90;0.90;;;;;;;2.81;100.00;99249.19;4439768;32;34895;-78
2023/01/15 07:50:21;;;;;;;1.52;1.42;;;;;;;3.31;100.00;99236.34;4425722;32;33654;-76
2023/01/15 07:52:50;;;;;;;1.20;1.08;;;;;;;3.59;100.00;99249.66;4439725;32;35895;-77
2023/01/15 07:55:20;;;;;;;1.25;1.02;;;;;;;3.16;100.00;99238.63;4435976;32;34759;-78
2023/01/15 07:57:49;;;;;;;1.50;1.40;;;;;;;3.53;100.00;99240.13;4439667;32;33453;-68
2023/01/15 08:00:20;;;;;;;1.30;1.15;;;;;;;3.26;100.00;99234.53;4439475;32;33936;-76
2023/01/15 08:02:49;;;;;;;1.92;1.87;;;;;;;3.32;100.00;99226.91;4439849;32;35541;-77
2023/01/15 08:05:18;;;;;;;1.48;1.42;;;;;;;3.56;100.00;99221.28;4439598;32;35095;-78
2023/01/15 08:07:46;;;;;;;1.67;1.60;;;;;;;3.17;100.00;99220.66;4439554;32;33633;-76
2023/01/15 08:10:14;;;;;;;3.65;2.42;;;;;;;3.84;100.00;99230.28;4439646;32;34453;-71
2023/01/15 08:15:32;;;;;;;4.15;3.72;;;;;;;3.75;100.00;99222.44;4439428;32;35198;-77
2023/01/15 08:18:00;;;;;;;2.37;2.25;;;;;;;3.44;100.00;99216.81;4425570;32;34486;-78
2023/01/15 08:20:28;;;;;;;1.85;1.75;;;;;;;3.71;100.00;99223.25;4439591;32;33973;-78
2023/01/15 08:22:56;;;;;;;0.82;0.82;;;;;;;3.63;100.00;99229.97;4439126;32;35111;-76
2023/01/15 08:25:24;;;;;;;1.33;1.33;;;;;;;3.50;100.00;99222.06;4439475;32;34470;-69
2023/01/15 08:27:53;;;;;;;2.72;2.15;;;;;;;3.78;100.00;99218.19;4438980;32;33122;-76
2023/01/15 08:30:23;;;;;;;3.30;2.85;;;;;;;3.43;100.00;99220.22;4425522;32;33802;-77
2023/01/15 08:32:51;;;;;;;2.03;1.92;;;;;;;3.57;100.00;99223.03;4439235;32;34202;-77
2023/01/15 08:35:19;;;;;;;0.90;0.90;;;;;;;3.45;100.00;99221.13;4439202;32;34466;-69
2023/01/15 08:37:48;;;;;;;1.92;1.83;;;;;;;3.44;100.00;99229.66;4439333;32;33953;-76
2023/01/15 08:40:16;;;;;;;2.40;1.70;;;;;;;3.59;100.00;99232.50;4439236;32;34099;-76
2023/01/15 08:42:44;;;;;;;0.82;0.82;;;;;;;3.68;100.00;99228.34;4439292;32;35015;-69
2023/01/15 08:45:13;;;;;;;3.17;2.92;;;;;;;3.37;100.00;99218.44;4439111;32;34418;-68
2023/01/15 08:47:41;;;;;;;2.25;2.05;;;;;;;3.18;100.00;99218.97;4439195;32;34197;-78
2023/01/15 08:50:10;;;;;;;2.75;2.55;;;;;;;3.59;100.00;99222.19;4439071;32;34687;-76
2023/01/15 08:52:38;;;;;;;1.52;1.17;;;;;;;3.42;100.00;99211.66;4439546;32;34891;-76
2023/01/15 08:55:07;;;;;;;2.95;2.75;;;;;;;3.94;100.00;99215.84;4439261;32;34475;-73
2023/01/15 08:57:37;;;;;;;3.45;2.20;;;;;;;4.13;100.00;99216.94;4439271;32;34157;-76
2023/01/15 09:00:06;;;;;;;1.35;1.27;;;;;;;3.90;100.00;99217.50;4439271;32;33904;-69
2023/01/15 09:02:34;;;;;;;1.60;1.50;;;;;;;4.14;100.00;99213.53;4425380;32;34901;-72
2023/01/15 09:05:02;;;;;;;1.20;1.17;;;;;;;3.86;100.00;99212.28;4439160;32;34382;-77
2023/01/15 09:07:31;;;;;;;2.55;2.35;;;;;;;3.78;100.00;99209.59;4439196;32;33613;-78
2023/01/15 09:09:59;;;;;;;6.65;2.37;;;;;;;4.08;100.00;99200.56;4439091;32;33976;-77
2023/01/15 09:12:28;;;;;;;3.90;2.45;;;;;;;4.01;100.00;99194.47;4439085;32;35307;-78
2023/01/15 09:14:56;;;;;;;3.20;1.80;;;;;;;4.05;100.00;99192.81;4438773;32;34443;-74
2023/01/15 09:17:31;;;;;;;2.33;2.20;;;;;;;4.12;99.43;99184.31;4439042;32;34287;-77
2023/01/15 09:20:01;;;;;;;0.62;0.62;;;;;;;4.16;100.00;99180.91;4439065;32;33753;-78
2023/01/15 09:22:30;;;;;;;4.28;3.40;;;;;;;4.28;99.85;99175.91;4438999;32;34334;-78
2023/01/15 09:24:58;;;;;;;1.62;1.50;;;;;;;4.21;99.81;99165.50;4439031;32;34550;-78
2023/01/15 09:30:19;;;;;;;3.17;1.60;;;;;;;4.21;100.00;99160.34;4438956;32;33698;-76
2023/01/15 09:32:48;;;;;;;2.60;2.40;;;;;;;4.41;99.55;99155.41;4438849;32;36006;-79
2023/01/15 09:35:16;;;;;;;2.30;2.12;;;;;;;4.76;97.99;99153.19;4438828;32;35356;-69
2023/01/15 09:37:50;;;;;;;1.05;1.00;;;;;;;4.54;98.73;99149.56;4438883;32;34531;-70
2023/01/15 09:40:46;;;;;;;0.82;0.82;;;;;;;4.60;98.91;99141.88;4438613;32;34731;-77
2023/01/15 09:43:40;;;;;;;2.35;2.25;;;;;;;4.71;97.02;99145.44;4438587;32;35264;-70
2023/01/15 09:46:22;;;;;;;1.12;1.12;;;;;;;4.64;97.38;99135.03;4436913;32;34191;-76
2023/01/15 09:49:03;;;;;;;0.73;0.73;;;;;;;4.48;97.72;99128.84;4424955;32;34264;-78
2023/01/15 09:51:53;;;;;;;1.90;1.80;;;;;;;4.83;96.05;99123.19;4438758;32;34764;-77
2023/01/15 09:54:42;;;;;;;3.70;1.30;;;;;;;4.96;96.27;99119.88;4424785;32;35983;-70
2023/01/15 09:57:15;;;;;;;4.47;2.37;;;;;;;5.50;93.97;99125.41;4418285;32;35060;-76
2023/01/15 09:59:47;;;;;;;1.60;1.52;;;;;;;5.42;93.17;99120.19;4424845;32;33759;-77
2023/01/15 10:02:21;;;;;;;2.45;2.25;;;;;;;5.53;90.92;99107.34;4438484;32;34057;-72
2023/01/15 10:05:15;;;;;;;1.10;1.10;;;;;;;5.53;91.02;99103.91;4424718;32;35208;-78
2023/01/15 10:07:55;;;;;;;2.83;2.62;;;;;;;5.70;91.07;99105.72;4424744;32;34459;-78
2023/01/15 10:10:32;;;;;;;2.95;2.53;;;;;;;5.86;89.73;99091.16;4438392;32;33453;-76
2023/01/15 10:13:18;;;;;;;0.70;0.70;;;;;;;5.84;88.64;99097.16;4424796;32;33866;-79
2023/01/15 10:15:47;;;;;;;1.20;1.20;;;;;;;5.62;90.34;99080.72;4438037;32;36020;-80
2023/01/15 10:18:20;;;;;;;1.52;1.42;;;;;;;6.08;88.28;99066.25;4438409;32;34492;-71
2023/01/15 10:21:23;;;;;;;4.75;4.32;;;;;;;6.19;86.28;99068.88;4438237;32;34282;-81
2023/01/15 10:24:14;;;;;;;3.12;2.15;;;;;;;6.13;86.44;99074.03;4437925;32;34788;-73
2023/01/15 10:26:52;;;;;;;1.33;1.23;;;;;;;5.99;86.35;99067.97;4424379;32;35920;-85
2023/01/15 10:29:45;;;;;;;4.28;1.95;;;;;;;5.88;87.51;99058.41;4438279;32;34551;-79
2023/01/15 10:32:37;;;;;;;0.88;0.88;;;;;;;6.13;87.33;99049.94;4424585;32;33954;-81
2023/01/15 10:35:27;;;;;;;1.37;1.25;;;;;;;6.08;87.89;99047.31;4437971;32;33994;-80
2023/01/15 10:38:05;;;;;;;3.22;2.08;;;;;;;6.15;85.10;99043.88;4437838;32;35084;-80
2023/01/15 10:40:56;;;;;;;2.45;2.25;;;;;;;5.92;86.26;99042.94;4439456;32;34539;-80
2023/01/15 10:43:38;;;;;;;0.62;0.62;;;;;;;6.27;84.59;99030.12;4426327;32;33526;-70
2023/01/15 10:46:18;;;;;;;1.83;1.05;;;;;;;6.22;85.66;99024.94;4426371;32;34761;-77
2023/01/15 10:48:51;;;;;;;3.08;2.53;;;;;;;6.90;82.91;99021.50;4440168;32;34706;-68
2023/01/15 10:51:49;;;;;;;2.17;1.98;;;;;;;6.19;82.95;99011.16;4426211;32;34484;-82
2023/01/15 10:54:41;;;;;;;1.25;1.15;;;;;;;6.52;84.06;99005.13;4426446;32;33746;-80
2023/01/15 10:57:21;;;;;;;1.35;1.25;;;;;;;6.61;82.33;99005.13;4426220;32;33848;-80
2023/01/15 10:59:58;;;;;;;3.10;1.70;;;;;;;6.53;83.41;98999.12;4440081;32;35139;-81
2023/01/15 11:02:34;;;;;;;2.58;2.37;;;;;;;6.99;80.34;98986.13;4440287;32;35308;-75
2023/01/15 11:05:03;;;;;;;4.50;4.20;;;;;;;7.11;80.45;98981.78;4440031;32;34155;-81
2023/01/15 11:07:57;;;;;;;0.93;0.93;;;;;;;7.42;78.92;98973.94;4426183;32;35223;-83
2023/01/15 11:10:46;;;;;;;1.50;1.40;;;;;;;7.13;79.54;98970.56;4439955;32;36036;-69
2023/01/15 11:21:41;;;;;;;2.42;1.95;;;;;;;6.99;78.05;98964.56;4440234;32;35873;-81
2023/01/15 11:24:15;;;;;;;2.95;2.22;;;;;;;7.27;77.50;98952.41;4439728;32;35228;-80
2023/01/15 11:26:51;;;;;;;1.27;1.27;;;;;;;7.71;77.41;98945.28;4426577;32;34136;-83
2023/01/15 11:29:37;;;;;;;1.17;1.08;;;;;;;7.31;77.33;98938.56;4425990;32;33897;-86
2023/01/15 11:32:19;;;;;;;0.90;0.90;;;;;;;7.38;76.95;98948.03;4439716;32;35088;-71
2023/01/15 11:34:55;;;;;;;2.35;2.15;;;;;;;7.37;76.28;98945.44;4439832;32;34524;-81
2023/01/15 11:37:24;;;;;;;1.55;1.27;;;;;;;7.37;76.12;98940.25;4439637;32;34330;-84
2023/01/15 11:40:05;;;;;;;3.22;1.05;;;;;;;8.03;73.22;98941.63;4439656;32;33911;-84
2023/01/15 11:51:15;;;;;;;2.50;1.85;;;;;;;7.09;76.40;98893.75;4438974;32;33965;-84
2023/01/15 11:53:46;;;;;;;2.45;2.10;;;;;;;8.05;74.63;98886.28;4439704;32;35269;-68
2023/01/15 11:56:23;;;;;;;1.08;1.00;;;;;;;8.14;73.01;98878.44;4439697;32;34548;-85
2023/01/15 11:58:53;;;;;;;1.33;1.23;;;;;;;7.82;73.51;98870.03;4425969;32;34281;-84
2023/01/15 12:01:30;;;;;;;3.22;2.92;;;;;;;8.73;71.81;98862.34;4425891;32;33041;-85
2023/01/15 12:04:00;;;;;;;2.35;2.25;;;;;;;8.03;72.91;98853.47;4439584;32;35121;-85
2023/01/15 12:06:29;;;;;;;2.47;1.98;;;;;;;8.11;73.00;98852.53;4425681;32;35210;-85
2023/01/15 12:09:12;;;;;;;1.50;1.37;;;;;;;8.41;72.23;98850.53;4439507;32;33362;-85
2023/01/15 12:11:46;;;;;;;1.02;1.02;;;;;;;8.22;72.25;98859.34;4439482;32;34794;-85
2023/01/15 12:14:39;;;;;;;3.62;3.28;;;;;;;8.38;72.08;98860.91;4439532;32;35011;-85
2023/01/15 12:17:34;;;;;;;0.90;0.90;;;;;;;8.31;71.97;98865.34;4439525;32;34527;-85
2023/01/15 12:20:20;;;;;;;1.53;1.43;;;;;;;8.71;71.42;98851.09;4425994;32;34325;-85
2023/01/15 12:22:55;;;;;;;2.70;2.50;;;;;;;8.23;72.60;98846.38;4425676;32;33882;-84
2023/01/15 12:25:38;;;;;;;0.82;0.82;;;;;;;7.86;72.93;98851.03;4425701;32;35099;-86
2023/01/15 12:28:33;;;;;;;1.05;1.05;;;;;;;8.14;72.59;98852.50;4439391;32;34644;-85
2023/01/15 12:31:09;;;;;;;1.52;1.42;;;;;;;8.26;72.35;98848.06;4439106;32;34120;-86
2023/01/15 12:33:53;;;;;;;0.77;0.77;;;;;;;8.41;72.27;98839.28;4425873;32;34046;-86
2023/01/15 12:36:33;;;;;;;1.48;0.98;;;;;;;8.61;70.82;98832.19;4439362;32;35087;-85
2023/01/15 12:39:29;;;;;;;0.75;0.75;;;;;;;8.70;70.32;98834.69;4439344;32;34405;-86
2023/01/15 12:45:02;;;;;;;1.55;1.08;;;;;;;8.28;71.77;98838.56;4436628;32;34010;-74
2023/01/15 12:48:03;;;;;;;0.65;0.65;;;;;;;8.62;71.11;98838.25;4439067;32;35169;-74
2023/01/15 12:50:38;;;;;;;1.02;1.02;;;;;;;8.14;71.78;98831.75;4431430;32;34514;-68
2023/01/15 12:53:21;;;;;;;2.53;2.33;;;;;;;8.78;70.62;98824.19;4440793;32;33070;-68
2023/01/15 12:56:01;;;;;;;1.90;1.80;;;;;;;8.71;69.88;98820.81;4454165;32;34745;-70
2023/01/15 12:58:50;;;;;;;2.47;2.05;;;;;;;9.06;68.86;98818.69;4440199;32;35214;-74
2023/01/15 13:01:55;;;;;;;3.00;1.33;;;;;;;8.39;70.04;98809.91;4440663;32;34797;-77
2023/01/15 13:04:35;;;;;;;3.22;1.42;;;;;;;8.34;70.89;98821.19;4454249;32;33501;-68
2023/01/15 13:07:16;;;;;;;0.55;0.55;;;;;;;8.06;70.95;98812.81;4440471;32;34529;-72